Time;durP1;ratioP1;P1;durP2;ratioP2;P2;SDS_P1;SDS_P2;PMS_P1;PMS_P2;Temp;Humidity;BMP_temperature;BMP_pressure;BME280_temperature;BME280_humidity;BME280_pressure;Samples;Min_cycle;Max_cycle;Signal;HPM_P1;HPM_P2
2022/06/15 00:00:09;;;;;;;2.72;1.50;;;20.50;60.70;;;;;;5109949;28;20058;-70
2022/06/15 00:02:36;;;;;;;1.88;1.50;;;20.30;59.70;;;;;;5092894;28;20056;-70
2022/06/15 00:05:04;;;;;;;1.90;1.40;;;21.50;61.50;;;;;;5088318;28;20082;-71
2022/06/15 00:07:31;;;;;;;1.92;1.23;;;20.40;60.70;;;;;;5088165;28;20075;-70
2022/06/15 00:09:58;;;;;;;4.05;1.55;;;19.50;60.20;;;;;;5089532;28;20051;-70
2022/06/15 00:12:24;;;;;;;2.55;1.63;;;20.50;60.80;;;;;;5118837;27;20058;-70
2022/06/15 00:14:51;;;;;;;2.17;1.50;;;20.30;56.70;;;;;;5107970;28;20047;-70
2022/06/15 00:17:18;;;;;;;1.55;1.20;;;20.20;59.90;;;;;;5108572;28;20138;-71
2022/06/15 00:19:45;;;;;;;2.97;1.70;;;20.30;56.70;;;;;;5107694;28;20105;-70
2022/06/15 00:22:13;;;;;;;2.22;1.58;;;20.30;56.70;;;;;;5107885;28;20059;-70
2022/06/15 00:24:40;;;;;;;2.05;1.50;;;20.20;60.40;;;;;;5108305;28;20055;-70
2022/06/15 00:27:07;;;;;;;2.60;1.60;;;21.30;60.40;;;;;;5108521;28;20077;-70
2022/06/15 00:29:37;;;;;;;3.03;1.50;;;20.20;56.70;;;;;;5107719;28;20047;-70
2022/06/15 00:32:05;;;;;;;1.55;1.40;;;20.90;60.70;;;;;;5108467;28;20055;-70
2022/06/15 00:34:33;;;;;;;2.58;1.60;;;20.20;56.70;;;;;;5108985;28;20050;-70
2022/06/15 00:37:01;;;;;;;2.95;1.60;;;20.20;56.70;;;;;;5107766;28;20058;-70
2022/06/15 00:39:29;;;;;;;1.95;1.42;;;20.30;61.20;;;;;;5109286;28;20134;-70
2022/06/15 00:41:56;;;;;;;2.92;1.58;;;20.30;60.60;;;;;;5107872;28;20051;-71
2022/06/15 00:44:35;;;;;;;2.60;1.35;;;20.20;56.70;;;;;;5107873;28;20055;-71
2022/06/15 00:47:04;;;;;;;2.40;1.52;;;20.20;56.70;;;;;;5107719;28;20127;-70
2022/06/15 00:49:33;;;;;;;2.00;1.40;;;20.20;56.70;;;;;;5108198;28;20053;-70
2022/06/15 00:52:02;;;;;;;1.73;1.40;;;20.20;56.70;;;;;;5107900;28;20051;-70
2022/06/15 00:54:31;;;;;;;3.03;1.40;;;20.30;60.50;;;;;;5108105;28;20078;-70
2022/06/15 00:56:57;;;;;;;2.47;1.75;;;20.20;60.00;;;;;;5107747;28;20055;-70
2022/06/15 00:59:25;;;;;;;2.20;1.35;;;20.10;56.70;;;;;;5107681;28;20066;-70
2022/06/15 01:01:52;;;;;;;1.52;1.23;;;20.10;57.30;;;;;;5098294;28;20051;-70
2022/06/15 01:04:20;;;;;;;2.50;1.50;;;20.20;56.80;;;;;;5105746;28;20561;-70
2022/06/15 01:06:49;;;;;;;2.17;1.50;;;20.20;56.80;;;;;;5107639;28;20060;-70
2022/06/15 01:09:20;;;;;;;2.88;1.65;;;20.00;60.10;;;;;;5090663;28;20043;-70
2022/06/15 01:12:05;;;;;;;2.25;1.30;;;19.90;60.50;;;;;;5108103;28;20054;-71
2022/06/15 01:14:59;;;;;;;3.33;1.42;;;20.10;56.60;;;;;;5107911;28;20131;-70
2022/06/15 01:17:44;;;;;;;2.53;1.53;;;20.20;60.50;;;;;;5109043;28;20044;-70
2022/06/15 01:20:17;;;;;;;1.50;1.40;;;20.10;56.70;;;;;;5107552;28;20058;-70
2022/06/15 01:22:55;;;;;;;2.33;1.30;;;20.10;56.80;;;;;;5107502;28;20052;-70
2022/06/15 01:25:37;;;;;;;3.78;1.73;;;20.10;56.80;;;;;;5108651;28;20120;-70
2022/06/15 01:28:30;;;;;;;2.17;1.40;;;20.10;60.30;;;;;;5104644;28;20052;-70
2022/06/15 01:31:00;;;;;;;2.60;1.50;;;20.80;61.50;;;;;;5107550;28;20047;-70
2022/06/15 01:33:28;;;;;;;2.90;1.25;;;20.70;60.40;;;;;;5108289;28;20063;-70
2022/06/15 01:36:01;;;;;;;3.20;1.58;;;20.00;56.80;;;;;;5107169;28;20059;-70
2022/06/15 01:38:34;;;;;;;2.42;1.50;;;20.10;56.80;;;;;;5106509;28;20131;-70
2022/06/15 01:41:16;;;;;;;2.25;1.40;;;20.10;60.40;;;;;;5107730;28;20048;-70
2022/06/15 01:43:45;;;;;;;2.00;1.25;;;19.90;60.40;;;;;;5107297;28;20134;-70
2022/06/15 01:46:13;;;;;;;1.85;1.60;;;19.90;59.40;;;;;;5108259;28;20040;-70
2022/06/15 01:48:39;;;;;;;1.50;1.38;;;20.00;56.80;;;;;;5108403;28;20067;-71
2022/06/15 01:51:10;;;;;;;2.85;1.38;;;20.10;60.40;;;;;;5108695;28;20581;-70
2022/06/15 01:53:39;;;;;;;2.65;1.50;;;20.20;60.20;;;;;;5107161;28;20051;-70
2022/06/15 01:56:12;;;;;;;1.92;1.30;;;20.00;56.80;;;;;;5107409;28;20062;-70
2022/06/15 01:58:40;;;;;;;1.42;1.30;;;19.90;61.10;;;;;;5107390;28;20047;-70
2022/06/15 02:01:08;;;;;;;2.70;1.45;;;19.90;60.50;;;;;;5107688;28;20036;-70
2022/06/15 02:03:48;;;;;;;2.22;1.42;;;20.00;60.60;;;;;;5106620;28;20138;-70
2022/06/15 02:06:20;;;;;;;1.50;1.30;;;19.40;58.80;;;;;;5108020;28;20054;-70
2022/06/15 02:08:49;;;;;;;1.50;1.30;;;19.90;56.70;;;;;;5112313;28;20460;-70
2022/06/15 02:11:22;;;;;;;2.20;1.58;;;19.90;56.70;;;;;;5122060;27;20059;-71
2022/06/15 02:13:50;;;;;;;2.33;1.55;;;19.90;56.80;;;;;;5130838;27;20051;-70
2022/06/15 02:16:20;;;;;;;2.42;1.50;;;20.60;59.60;;;;;;5132451;27;20053;-70
2022/06/15 02:18:48;;;;;;;2.28;1.50;;;20.00;61.60;;;;;;5118191;27;20054;-71
2022/06/15 02:21:16;;;;;;;2.15;1.40;;;19.90;56.80;;;;;;5110352;28;20054;-70
2022/06/15 02:23:42;;;;;;;2.25;1.58;;;20.00;60.50;;;;;;5111750;28;20130;-70
2022/06/15 02:26:09;;;;;;;2.97;1.33;;;19.90;56.80;;;;;;5110484;28;20056;-70
2022/06/15 02:28:37;;;;;;;2.35;1.50;;;20.90;61.20;;;;;;5110565;28;20139;-70
2022/06/15 02:31:03;;;;;;;2.35;1.23;;;19.90;56.80;;;;;;5110572;28;20047;-70
2022/06/15 02:33:32;;;;;;;2.45;1.58;;;20.00;60.90;;;;;;5109804;28;20131;-70
2022/06/15 02:36:01;;;;;;;1.75;1.48;;;19.80;61.20;;;;;;5110460;28;20059;-70
2022/06/15 02:38:28;;;;;;;3.03;1.33;;;19.90;61.10;;;;;;5110161;28;20127;-70
2022/06/15 02:40:55;;;;;;;2.17;1.40;;;19.90;56.80;;;;;;5110375;28;20597;-70
2022/06/15 02:43:23;;;;;;;2.38;1.40;;;19.10;60.70;;;;;;5109894;28;20079;-71
2022/06/15 02:45:49;;;;;;;1.60;1.30;;;20.90;61.00;;;;;;5110078;28;20478;-70
2022/06/15 02:48:16;;;;;;;2.13;1.48;;;19.80;56.80;;;;;;5109440;28;20057;-70
2022/06/15 02:50:46;;;;;;;2.83;1.60;;;20.00;61.00;;;;;;5111254;28;20062;-70
2022/06/15 02:53:15;;;;;;;2.47;1.50;;;19.40;60.00;;;;;;5109430;28;20055;-70
2022/06/15 02:55:42;;;;;;;3.20;1.45;;;19.80;56.80;;;;;;5111128;28;20066;-70
2022/06/15 02:58:10;;;;;;;1.73;1.45;;;19.70;60.30;;;;;;5111119;28;20115;-71
2022/06/15 03:00:37;;;;;;;2.53;1.48;;;19.80;60.30;;;;;;5110951;28;20048;-70
2022/06/15 03:03:04;;;;;;;2.20;1.33;;;19.70;61.30;;;;;;5108627;28;20540;-70
2022/06/15 03:05:30;;;;;;;1.67;1.30;;;19.80;56.80;;;;;;5109694;28;20646;-71
2022/06/15 03:07:57;;;;;;;2.33;1.40;;;19.50;60.50;;;;;;5109331;28;20047;-70
2022/06/15 03:10:25;;;;;;;2.00;1.50;;;19.70;56.80;;;;;;5113282;27;20047;-70
2022/06/15 03:12:52;;;;;;;2.60;1.30;;;19.80;56.80;;;;;;5131076;27;20045;-70
2022/06/15 03:15:19;;;;;;;2.92;1.38;;;19.70;56.80;;;;;;5130404;27;20080;-70
2022/06/15 03:17:46;;;;;;;2.05;1.40;;;19.70;61.10;;;;;;5130023;27;20055;-70
2022/06/15 03:20:12;;;;;;;2.72;1.50;;;19.70;56.80;;;;;;5131478;27;20635;-73
2022/06/15 03:22:39;;;;;;;1.77;1.27;;;19.80;56.80;;;;;;5130008;27;20043;-71
2022/06/15 03:25:07;;;;;;;2.15;1.45;;;19.70;60.00;;;;;;5104569;28;20074;-71
2022/06/15 03:27:35;;;;;;;2.15;1.48;;;19.70;56.70;;;;;;5109239;28;20148;-71
2022/06/15 03:30:04;;;;;;;2.45;1.30;;;19.70;56.70;;;;;;5109790;28;20060;-71
2022/06/15 03:32:30;;;;;;;1.63;1.33;;;20.70;60.90;;;;;;5109313;28;20142;-71
2022/06/15 03:34:57;;;;;;;2.20;1.40;;;19.50;60.50;;;;;;5109177;28;20134;-71
2022/06/15 03:37:24;;;;;;;2.08;1.42;;;19.80;60.30;;;;;;5110335;28;20044;-71
2022/06/15 03:39:52;;;;;;;2.03;1.45;;;19.70;56.80;;;;;;5108830;28;20067;-71
2022/06/15 03:42:22;;;;;;;1.85;1.50;;;19.40;61.50;;;;;;5108350;28;20046;-71
2022/06/15 03:44:50;;;;;;;2.47;1.50;;;19.70;56.80;;;;;;5108807;28;20098;-71
2022/06/15 03:47:17;;;;;;;2.03;1.50;;;19.70;56.80;;;;;;5109130;28;20055;-71
2022/06/15 03:49:44;;;;;;;1.90;1.50;;;19.90;60.80;;;;;;5109285;28;20447;-71
2022/06/15 03:52:12;;;;;;;2.05;1.50;;;19.70;56.80;;;;;;5108835;28;20048;-71
2022/06/15 03:54:39;;;;;;;2.05;1.38;;;19.70;61.30;;;;;;5108905;28;20063;-71
2022/06/15 03:57:06;;;;;;;2.80;1.70;;;19.80;60.50;;;;;;5108655;28;20059;-71
2022/06/15 03:59:33;;;;;;;1.90;1.60;;;19.70;60.90;;;;;;5109944;28;20516;-71
2022/06/15 04:02:01;;;;;;;2.33;1.40;;;19.70;60.80;;;;;;5107603;28;20055;-71
2022/06/15 04:04:27;;;;;;;1.83;1.40;;;19.60;56.80;;;;;;5108358;28;20061;-71
2022/06/15 04:06:54;;;;;;;2.20;1.40;;;19.70;56.80;;;;;;5108440;28;20058;-71
2022/06/15 04:09:21;;;;;;;2.72;1.48;;;19.30;60.40;;;;;;5109864;28;20499;-71
2022/06/15 04:12:01;;;;;;;1.80;1.30;;;19.60;56.80;;;;;;5124094;27;20045;-71
2022/06/15 04:14:28;;;;;;;2.45;1.40;;;18.60;60.80;;;;;;5126729;27;20138;-71
2022/06/15 04:16:56;;;;;;;2.03;1.50;;;18.50;59.90;;;;;;5109656;28;20148;-72
2022/06/15 04:19:25;;;;;;;2.10;1.30;;;19.60;56.80;;;;;;5108760;28;20708;-72
2022/06/15 04:21:51;;;;;;;1.67;1.35;;;19.40;60.60;;;;;;5108565;28;20055;-72
2022/06/15 04:24:18;;;;;;;2.30;1.50;;;19.80;61.10;;;;;;5108499;28;20055;-70
2022/06/15 04:26:45;;;;;;;1.90;1.52;;;19.50;60.00;;;;;;5108593;28;20127;-72
2022/06/15 04:29:12;;;;;;;2.78;1.50;;;19.60;56.90;;;;;;5108225;28;20146;-71
2022/06/15 04:31:39;;;;;;;1.80;1.40;;;20.50;61.40;;;;;;5108773;28;20454;-72
2022/06/15 04:34:06;;;;;;;2.25;1.42;;;19.70;60.80;;;;;;5108461;28;20134;-72
2022/06/15 04:36:34;;;;;;;1.63;1.30;;;19.50;56.70;;;;;;5108542;28;20461;-71
2022/06/15 04:39:01;;;;;;;1.63;1.20;;;19.60;56.80;;;;;;5108491;28;20051;-71
2022/06/15 04:41:27;;;;;;;2.45;1.30;;;20.40;60.70;;;;;;5109371;28;20123;-72
2022/06/15 04:43:54;;;;;;;2.47;1.30;;;19.10;60.60;;;;;;5108450;28;20065;-72
2022/06/15 04:46:21;;;;;;;1.38;1.23;;;19.80;59.90;;;;;;5108566;28;20504;-71
2022/06/15 04:48:47;;;;;;;2.45;1.27;;;20.50;60.70;;;;;;5109177;28;20127;-72
2022/06/15 04:51:15;;;;;;;2.90;1.50;;;20.40;61.20;;;;;;5107957;28;20047;-72
2022/06/15 04:53:43;;;;;;;2.15;1.35;;;19.60;60.40;;;;;;5108423;28;20043;-72
2022/06/15 04:56:10;;;;;;;1.67;1.40;;;19.20;60.40;;;;;;5108642;28;20490;-72
2022/06/15 04:58:39;;;;;;;1.67;1.25;;;18.40;60.00;;;;;;5108446;28;20077;-72
2022/06/15 05:01:06;;;;;;;1.55;1.30;;;18.70;60.00;;;;;;5108206;28;20052;-71
2022/06/15 05:03:33;;;;;;;2.10;1.60;;;19.60;56.80;;;;;;5107783;28;20058;-72
2022/06/15 05:06:00;;;;;;;2.30;1.40;;;19.40;60.90;;;;;;5093629;28;20581;-72
2022/06/15 05:08:27;;;;;;;2.05;1.50;;;20.30;61.20;;;;;;5087614;28;20052;-72
2022/06/15 05:10:55;;;;;;;2.08;1.50;;;20.70;62.00;;;;;;5094612;28;20059;-71
2022/06/15 05:13:21;;;;;;;2.13;1.30;;;19.60;56.80;;;;;;5108488;28;20057;-71
2022/06/15 05:15:50;;;;;;;1.83;1.30;;;19.60;56.80;;;;;;5108626;28;20122;-71
2022/06/15 05:18:17;;;;;;;1.70;1.20;;;18.90;60.00;;;;;;5107667;28;20079;-71
2022/06/15 05:20:44;;;;;;;1.63;1.17;;;19.60;56.80;;;;;;5107960;28;20138;-71
2022/06/15 05:23:13;;;;;;;2.65;1.50;;;19.70;60.50;;;;;;5091303;28;20135;-71
2022/06/15 05:25:39;;;;;;;1.98;1.30;;;19.60;56.80;;;;;;5087343;28;20048;-71
2022/06/15 05:28:08;;;;;;;2.78;1.33;;;19.60;60.80;;;;;;5088181;28;20044;-71
2022/06/15 05:30:34;;;;;;;2.15;1.40;;;19.60;56.80;;;;;;5087375;28;20067;-71
2022/06/15 05:33:01;;;;;;;1.42;1.23;;;19.70;60.70;;;;;;5101347;28;20052;-71
2022/06/15 05:35:28;;;;;;;2.03;1.40;;;19.60;56.80;;;;;;5107907;28;20051;-71
2022/06/15 05:37:55;;;;;;;1.67;1.30;;;19.80;61.50;;;;;;5106719;28;20047;-71
2022/06/15 05:40:22;;;;;;;2.65;1.30;;;19.70;57.50;;;;;;5087682;28;20052;-71
2022/06/15 05:42:48;;;;;;;2.38;1.27;;;19.70;56.80;;;;;;5091682;28;20044;-71
2022/06/15 05:45:16;;;;;;;1.58;1.20;;;19.80;60.30;;;;;;5092094;28;20579;-71
2022/06/15 05:47:43;;;;;;;1.25;1.10;;;19.80;60.00;;;;;;5090894;28;20554;-71
2022/06/15 05:50:11;;;;;;;2.45;1.20;;;19.80;61.20;;;;;;5090929;28;20140;-71
2022/06/15 05:52:38;;;;;;;1.67;1.30;;;19.90;60.00;;;;;;5090526;28;20131;-71
2022/06/15 05:55:05;;;;;;;1.38;1.20;;;19.90;56.70;;;;;;5091707;28;20433;-71
2022/06/15 05:57:32;;;;;;;1.45;1.33;;;19.90;61.40;;;;;;5090542;28;20135;-71
2022/06/15 05:59:59;;;;;;;1.75;1.30;;;19.90;60.40;;;;;;5090860;28;20062;-71
2022/06/15 06:02:29;;;;;;;2.17;1.30;;;20.00;56.70;;;;;;5103413;28;20056;-71
2022/06/15 06:04:56;;;;;;;2.10;1.38;;;20.00;60.30;;;;;;5111045;28;20051;-71
2022/06/15 06:07:23;;;;;;;2.53;1.20;;;19.90;60.60;;;;;;5111039;28;20566;-70
2022/06/15 06:09:49;;;;;;;1.60;1.30;;;20.10;56.60;;;;;;5111055;28;20625;-71
2022/06/15 06:12:17;;;;;;;1.60;1.20;;;21.00;61.00;;;;;;5103801;28;20588;-71
2022/06/15 06:14:44;;;;;;;1.90;1.30;;;20.10;61.00;;;;;;5092024;28;20487;-70
2022/06/15 06:17:12;;;;;;;2.30;1.45;;;20.30;59.50;;;;;;5099575;28;20665;-71
2022/06/15 06:19:41;;;;;;;1.30;1.20;;;20.40;59.70;;;;;;5090465;28;20056;-72
2022/06/15 06:22:07;;;;;;;2.08;1.30;;;20.40;56.10;;;;;;5090323;28;20508;-71
2022/06/15 06:24:34;;;;;;;2.05;1.13;;;20.00;59.60;;;;;;5090380;28;20059;-71
2022/06/15 06:27:02;;;;;;;2.70;1.27;;;20.40;60.10;;;;;;5089997;28;20054;-73
2022/06/15 06:29:29;;;;;;;1.70;1.08;;;20.60;55.80;;;;;;5097705;28;20055;-71
2022/06/15 06:31:57;;;;;;;1.40;1.15;;;20.70;55.70;;;;;;5092531;28;20139;-70
2022/06/15 06:34:24;;;;;;;1.45;1.20;;;20.80;55.50;;;;;;5089951;28;20139;-70
2022/06/15 06:36:52;;;;;;;3.10;1.27;;;20.20;58.90;;;;;;5091003;28;20048;-70
2022/06/15 06:39:19;;;;;;;1.73;1.17;;;21.00;55.20;;;;;;5090061;28;20406;-71
2022/06/15 06:41:46;;;;;;;2.10;1.10;;;21.00;55.00;;;;;;5090100;28;20413;-71
2022/06/15 06:44:13;;;;;;;3.38;1.33;;;20.60;59.80;;;;;;5089226;28;20044;-70
2022/06/15 06:46:42;;;;;;;2.58;1.30;;;21.10;59.90;;;;;;5091154;28;20132;-71
2022/06/15 06:49:09;;;;;;;1.33;1.00;;;20.90;58.90;;;;;;5091129;28;20082;-71
2022/06/15 06:51:36;;;;;;;2.15;1.10;;;21.10;54.90;;;;;;5089582;28;20125;-70
2022/06/15 06:54:05;;;;;;;2.80;1.60;;;21.60;58.60;;;;;;5089099;28;20044;-70
2022/06/15 06:56:34;;;;;;;2.25;1.20;;;21.20;54.80;;;;;;5089810;28;20055;-70
2022/06/15 06:59:00;;;;;;;3.78;1.50;;;22.00;60.20;;;;;;5089747;28;20068;-71
2022/06/15 07:01:27;;;;;;;3.25;1.27;;;21.40;54.80;;;;;;5094737;28;20047;-70
2022/06/15 07:03:54;;;;;;;3.65;1.52;;;21.60;58.70;;;;;;5095122;28;20048;-69
2022/06/15 07:06:21;;;;;;;5.53;1.50;;;21.30;56.90;;;;;;5089709;28;20114;-72
2022/06/15 07:08:48;;;;;;;3.20;1.45;;;21.80;59.20;;;;;;5089961;28;20576;-71
2022/06/15 07:11:17;;;;;;;2.90;1.40;;;21.70;58.70;;;;;;5099094;28;20055;-70
2022/06/15 07:13:43;;;;;;;3.90;1.48;;;22.10;54.40;;;;;;5109844;28;20048;-70
2022/06/15 07:16:11;;;;;;;4.47;2.08;;;21.30;56.30;;;;;;5100304;28;20056;-70
2022/06/15 07:18:38;;;;;;;2.92;1.30;;;22.00;54.00;;;;;;5099526;28;20062;-70
2022/06/15 07:21:05;;;;;;;3.38;1.40;;;22.20;54.00;;;;;;5098339;28;20126;-70
2022/06/15 07:23:32;;;;;;;2.63;1.30;;;22.20;53.80;;;;;;5096044;28;20048;-70
2022/06/15 07:26:02;;;;;;;3.28;1.50;;;22.30;53.60;;;;;;5095030;28;20056;-70
2022/06/15 07:28:30;;;;;;;3.92;1.42;;;22.30;57.80;;;;;;5096906;28;20049;-70
2022/06/15 07:30:57;;;;;;;3.95;1.63;;;22.40;53.40;;;;;;5093361;28;20134;-70
2022/06/15 07:33:24;;;;;;;1.75;1.10;;;22.50;53.30;;;;;;5102572;27;20051;-69
2022/06/15 07:35:50;;;;;;;2.10;1.23;;;22.50;57.40;;;;;;5103255;28;20059;-70
2022/06/15 07:38:17;;;;;;;3.00;1.30;;;22.60;53.10;;;;;;5089958;28;20048;-70
2022/06/15 07:40:44;;;;;;;1.95;1.30;;;22.60;53.00;;;;;;5090525;28;20147;-70
2022/06/15 07:43:11;;;;;;;3.17;1.45;;;21.60;55.80;;;;;;5094440;28;20040;-69
2022/06/15 07:45:39;;;;;;;2.80;1.40;;;21.30;56.80;;;;;;5109321;28;20063;-69
2022/06/15 07:50:50;;;;;;;3.05;1.30;;;22.90;52.90;;;;;;5088959;28;20168;-69
2022/06/15 07:53:17;;;;;;;2.80;1.38;;;22.90;57.20;;;;;;5088232;28;20059;-70
2022/06/15 07:55:45;;;;;;;3.08;1.50;;;23.70;57.90;;;;;;5088903;28;20052;-70
2022/06/15 07:58:12;;;;;;;1.55;1.30;;;23.00;52.80;;;;;;5088750;28;20048;-70
2022/06/15 08:00:41;;;;;;;3.15;1.38;;;23.20;56.40;;;;;;5100120;28;20491;-70
2022/06/15 08:03:09;;;;;;;2.50;1.15;;;23.00;52.80;;;;;;5094768;28;20418;-70
2022/06/15 08:05:37;;;;;;;3.30;1.63;;;23.00;52.70;;;;;;5098684;28;20051;-71
2022/06/15 08:08:04;;;;;;;4.70;1.98;;;23.20;57.20;;;;;;5096616;28;20677;-71
2022/06/15 08:10:30;;;;;;;2.72;1.25;;;23.10;52.70;;;;;;5101169;27;20055;-71
2022/06/15 08:12:57;;;;;;;2.53;1.20;;;22.40;54.80;;;;;;5097247;28;20127;-70
2022/06/15 08:15:24;;;;;;;1.45;1.15;;;23.00;52.80;;;;;;5096749;28;20693;-70
2022/06/15 08:17:53;;;;;;;2.85;1.20;;;23.10;53.20;;;;;;5099312;28;20080;-71
2022/06/15 08:20:22;;;;;;;1.70;1.20;;;23.00;57.10;;;;;;5098067;28;20051;-71
2022/06/15 08:22:50;;;;;;;3.40;1.35;;;23.10;52.90;;;;;;5094697;28;20054;-70
2022/06/15 08:25:20;;;;;;;4.25;1.67;;;23.10;52.90;;;;;;5099180;28;20075;-70
2022/06/15 08:27:46;;;;;;;2.17;1.27;;;22.60;57.50;;;;;;5098458;28;20134;-70
2022/06/15 08:30:14;;;;;;;2.00;1.20;;;23.20;53.00;;;;;;5097112;28;20078;-70
2022/06/15 08:32:41;;;;;;;2.30;1.30;;;23.20;52.90;;;;;;5097893;28;20150;-72
2022/06/15 08:35:10;;;;;;;2.45;1.10;;;23.40;57.20;;;;;;5096029;28;20076;-70
2022/06/15 08:37:36;;;;;;;3.05;1.25;;;21.90;56.50;;;;;;5099080;28;20154;-70
2022/06/15 08:40:04;;;;;;;2.10;1.40;;;23.20;53.00;;;;;;5087956;28;20056;-70
2022/06/15 08:42:34;;;;;;;1.90;1.20;;;23.30;53.00;;;;;;5087839;28;20707;-70
2022/06/15 08:45:07;;;;;;;4.32;1.10;;;23.50;57.20;;;;;;5087661;28;20452;-71
2022/06/15 08:47:53;;;;;;;1.83;1.20;;;23.20;52.90;;;;;;5089053;28;20044;-72
2022/06/15 08:50:25;;;;;;;2.92;1.20;;;23.20;52.80;;;;;;5091304;28;20048;-71
2022/06/15 08:52:54;;;;;;;3.42;1.25;;;24.40;56.50;;;;;;5089464;28;20071;-72
2022/06/15 08:55:24;;;;;;;4.07;1.45;;;23.00;55.70;;;;;;5091241;28;20474;-71
2022/06/15 08:57:52;;;;;;;2.38;1.30;;;22.50;55.80;;;;;;5090561;28;20066;-71
2022/06/15 09:00:22;;;;;;;5.60;1.40;;;23.00;52.50;;;;;;5089719;28;20131;-71
2022/06/15 09:02:56;;;;;;;7.70;1.98;;;23.10;56.40;;;;;;5106739;28;20056;-71
2022/06/15 09:05:29;;;;;;;1.83;1.20;;;23.00;52.60;;;;;;5109791;28;20058;-71
2022/06/15 09:08:14;;;;;;;3.38;1.27;;;23.00;56.40;;;;;;5110599;28;20058;-71
2022/06/15 09:10:49;;;;;;;2.47;1.30;;;23.00;52.90;;;;;;5110074;28;20135;-70
2022/06/15 09:13:25;;;;;;;2.08;1.35;;;23.00;52.80;;;;;;5093371;28;20070;-69
2022/06/15 09:15:56;;;;;;;2.83;1.35;;;22.90;52.70;;;;;;5112228;28;20470;-70
2022/06/15 09:18:25;;;;;;;2.03;1.30;;;23.00;52.60;;;;;;5113830;28;20051;-71
2022/06/15 09:20:54;;;;;;;2.35;1.15;;;22.90;57.10;;;;;;5113311;28;20095;-71
2022/06/15 09:23:24;;;;;;;1.88;1.20;;;22.60;56.30;;;;;;5093991;28;20044;-71
2022/06/15 09:25:53;;;;;;;2.08;1.30;;;23.00;56.70;;;;;;5095109;28;20414;-71
2022/06/15 09:28:25;;;;;;;3.25;1.40;;;22.90;52.70;;;;;;5093865;28;20058;-71
2022/06/15 09:30:53;;;;;;;2.72;1.33;;;23.00;57.20;;;;;;5093944;28;20052;-70
2022/06/15 09:33:21;;;;;;;2.70;1.25;;;22.80;56.50;;;;;;5091172;28;20483;-70
2022/06/15 09:35:50;;;;;;;4.10;1.40;;;21.60;56.00;;;;;;5091136;28;20131;-70
2022/06/15 09:38:18;;;;;;;2.35;1.30;;;23.40;56.60;;;;;;5092553;28;20139;-70
2022/06/15 09:40:50;;;;;;;1.83;1.30;;;22.90;52.70;;;;;;5091063;28;20062;-70
2022/06/15 09:43:22;;;;;;;3.20;1.33;;;22.90;52.70;;;;;;5091040;28;20081;-70
2022/06/15 09:45:52;;;;;;;1.75;1.20;;;22.70;57.50;;;;;;5091411;28;20055;-70
2022/06/15 09:48:21;;;;;;;2.03;1.25;;;22.90;52.60;;;;;;5090998;28;20048;-70
2022/06/15 09:50:54;;;;;;;1.42;1.20;;;23.00;52.60;;;;;;5092246;28;20055;-70
2022/06/15 09:53:31;;;;;;;2.90;1.30;;;23.40;56.50;;;;;;5091806;28;20079;-70
2022/06/15 09:55:59;;;;;;;1.98;1.15;;;23.00;52.60;;;;;;5090824;28;20070;-69
2022/06/15 09:58:26;;;;;;;1.70;1.13;;;23.10;52.60;;;;;;5092119;28;20135;-70
2022/06/15 10:00:53;;;;;;;1.92;1.30;;;23.00;52.50;;;;;;5092538;28;20123;-69
2022/06/15 10:03:23;;;;;;;2.53;1.40;;;22.40;55.90;;;;;;5110536;28;20147;-70
2022/06/15 10:05:49;;;;;;;1.48;1.10;;;22.90;56.00;;;;;;5112393;28;20050;-70
2022/06/15 10:08:16;;;;;;;2.22;1.30;;;23.00;52.60;;;;;;5112721;28;20453;-70
2022/06/15 10:10:48;;;;;;;2.47;1.40;;;22.90;52.60;;;;;;5112995;28;20050;-71
2022/06/15 10:13:30;;;;;;;1.63;1.20;;;22.90;52.60;;;;;;5112510;28;20126;-70
2022/06/15 10:15:58;;;;;;;1.60;1.15;;;23.00;52.60;;;;;;5113736;28;20094;-69
2022/06/15 10:18:31;;;;;;;1.85;1.15;;;23.00;52.60;;;;;;5114592;28;20217;-69
2022/06/15 10:21:01;;;;;;;2.38;1.23;;;22.90;57.00;;;;;;5112865;28;20062;-71
2022/06/15 10:23:34;;;;;;;2.15;1.48;;;23.00;52.50;;;;;;5112707;28;20052;-69
2022/06/15 10:26:02;;;;;;;1.98;1.35;;;23.00;52.40;;;;;;5112577;28;20055;-70
2022/06/15 10:28:33;;;;;;;1.58;1.10;;;23.00;52.40;;;;;;5100846;28;20056;-70
2022/06/15 10:31:02;;;;;;;1.42;1.23;;;23.10;56.70;;;;;;5091102;28;20524;-70
2022/06/15 10:33:35;;;;;;;2.05;1.30;;;22.90;52.50;;;;;;5091066;28;20080;-70
2022/06/15 10:36:02;;;;;;;2.58;1.17;;;23.00;52.60;;;;;;5089540;28;20787;-70
2022/06/15 10:38:28;;;;;;;2.17;1.35;;;23.00;52.60;;;;;;5090029;28;20044;-69
2022/06/15 10:40:58;;;;;;;2.28;1.30;;;23.00;52.60;;;;;;5088228;28;20048;-70
2022/06/15 10:43:29;;;;;;;14.15;4.82;;;23.00;52.60;;;;;;5089021;28;20485;-70
2022/06/15 10:45:58;;;;;;;9.48;2.80;;;22.70;55.70;;;;;;5112060;27;20528;-69
2022/06/15 10:48:28;;;;;;;3.90;1.98;;;22.90;52.70;;;;;;5130277;27;20142;-70
2022/06/15 10:51:00;;;;;;;4.20;1.75;;;22.50;57.40;;;;;;5130573;27;20130;-70
2022/06/15 10:53:32;;;;;;;3.05;1.65;;;23.00;57.10;;;;;;5129789;27;20109;-71
2022/06/15 11:04:25;;;;;;;2.83;1.60;;;22.90;52.90;;;;;;5109648;28;20075;-70
2022/06/15 11:06:54;;;;;;;2.28;1.40;;;23.50;55.20;;;;;;5111117;28;20430;-71
2022/06/15 11:09:34;;;;;;;2.70;1.40;;;22.90;53.00;;;;;;5109899;28;20707;-70
2022/06/15 11:12:02;;;;;;;2.92;1.40;;;22.40;56.30;;;;;;5111101;28;20621;-70
2022/06/15 11:14:33;;;;;;;3.58;1.60;;;23.20;57.60;;;;;;5108462;27;20058;-70
2022/06/15 11:20:00;;;;;;;2.92;1.50;;;22.90;53.10;;;;;;5110023;28;20056;-70
2022/06/15 11:22:26;;;;;;;2.45;1.45;;;22.80;53.10;;;;;;5109730;28;20058;-70
2022/06/15 11:24:57;;;;;;;3.42;1.60;;;22.90;57.70;;;;;;5108852;28;20677;-70
2022/06/15 11:27:26;;;;;;;2.10;1.40;;;22.90;57.70;;;;;;5110828;28;20050;-71
2022/06/15 11:29:56;;;;;;;2.72;1.40;;;23.60;57.00;;;;;;5109543;28;20081;-70
2022/06/15 11:32:38;;;;;;;1.63;1.27;;;22.50;56.20;;;;;;5108339;28;20066;-71
2022/06/15 11:35:27;;;;;;;2.30;1.35;;;22.80;56.30;;;;;;5106362;28;20516;-70
2022/06/15 11:37:57;;;;;;;2.22;1.50;;;22.90;53.30;;;;;;5109516;28;20522;-71
2022/06/15 11:40:28;;;;;;;2.33;1.33;;;22.90;53.30;;;;;;5109560;28;20112;-70
2022/06/15 11:42:55;;;;;;;3.58;1.42;;;23.00;56.70;;;;;;5107993;28;20104;-70
2022/06/15 11:45:25;;;;;;;3.58;1.35;;;22.90;53.30;;;;;;5090228;28;20044;-70
2022/06/15 11:47:58;;;;;;;1.83;1.25;;;22.90;53.30;;;;;;5089088;28;20437;-71
2022/06/15 11:50:28;;;;;;;2.00;1.30;;;22.80;56.70;;;;;;5089324;28;20139;-70
2022/06/15 11:53:00;;;;;;;9.80;8.85;;;21.60;56.60;;;;;;5090940;28;20048;-70
2022/06/15 11:55:32;;;;;;;8.73;7.35;;;22.90;56.50;;;;;;5088638;28;20044;-70
2022/06/15 11:58:28;;;;;;;9.50;8.52;;;22.10;56.60;;;;;;5090084;28;20577;-71
2022/06/15 12:01:01;;;;;;;11.60;9.90;;;22.90;53.00;;;;;;5085349;28;20055;-70
2022/06/15 12:03:58;;;;;;;8.55;7.65;;;22.90;53.40;;;;;;5088949;28;20054;-71
2022/06/15 12:06:27;;;;;;;8.48;7.65;;;23.30;56.10;;;;;;5083800;28;20054;-71
2022/06/15 12:08:58;;;;;;;9.32;7.20;;;22.30;57.60;;;;;;5096564;28;20058;-70
2022/06/15 12:14:14;;;;;;;8.18;5.70;;;22.80;53.60;;;;;;5108545;28;20421;-70
2022/06/15 12:16:45;;;;;;;9.98;5.60;;;23.00;53.80;;;;;;5108608;28;20078;-69
2022/06/15 12:19:15;;;;;;;6.03;5.20;;;22.80;53.70;;;;;;5109893;28;20044;-70
2022/06/15 12:21:44;;;;;;;6.53;4.82;;;22.90;53.70;;;;;;5106247;28;20142;-69
2022/06/15 12:24:14;;;;;;;6.43;5.10;;;23.90;57.00;;;;;;5089053;28;20066;-69
2022/06/15 12:26:45;;;;;;;6.25;4.55;;;23.10;56.70;;;;;;5108233;28;20051;-69
2022/06/15 12:29:19;;;;;;;7.22;4.90;;;22.90;53.70;;;;;;5109794;28;20382;-70
2022/06/15 12:31:56;;;;;;;6.28;4.82;;;22.90;54.00;;;;;;5110499;28;20056;-71
2022/06/15 12:34:25;;;;;;;5.43;3.90;;;22.90;57.10;;;;;;5110538;28;20130;-71
2022/06/15 12:36:54;;;;;;;6.43;4.30;;;22.90;53.90;;;;;;5108304;28;20135;-70
2022/06/15 12:39:23;;;;;;;5.78;3.97;;;22.80;56.60;;;;;;5108095;28;20063;-70
2022/06/15 12:44:38;;;;;;;5.20;3.90;;;22.80;57.00;;;;;;5108756;28;20043;-71
2022/06/15 12:47:07;;;;;;;4.82;4.00;;;19.90;55.80;;;;;;5110063;28;20050;-71
2022/06/15 12:49:36;;;;;;;6.00;4.10;;;22.70;57.00;;;;;;5110155;28;20482;-72
2022/06/15 12:52:07;;;;;;;6.22;4.00;;;22.90;53.90;;;;;;5088653;28;20136;-71
2022/06/15 12:54:39;;;;;;;4.22;3.63;;;22.90;53.90;;;;;;5089191;28;20492;-72
2022/06/15 12:57:10;;;;;;;4.32;3.30;;;22.90;57.40;;;;;;5090206;28;20062;-71
2022/06/15 12:59:43;;;;;;;4.47;3.67;;;22.90;53.90;;;;;;5090655;28;20138;-72
2022/06/15 13:02:12;;;;;;;5.13;3.63;;;22.60;57.20;;;;;;5100233;28;20051;-71
2022/06/15 13:04:43;;;;;;;5.18;3.85;;;22.90;53.90;;;;;;5108709;28;20124;-72
2022/06/15 13:07:19;;;;;;;4.38;3.38;;;25.10;55.10;;;;;;5107752;28;20382;-70
2022/06/15 13:10:14;;;;;;;3.70;3.38;;;23.00;57.10;;;;;;5108898;28;20070;-71
2022/06/15 13:12:42;;;;;;;5.60;3.70;;;22.80;53.50;;;;;;5090234;28;20131;-71
2022/06/15 13:15:18;;;;;;;3.42;3.13;;;21.10;56.50;;;;;;5087984;28;20131;-70
2022/06/15 13:21:02;;;;;;;4.35;3.50;;;22.90;57.20;;;;;;5085603;27;20368;-70